createdAt,value
2018-12-16T00:01:04.805Z,99161.69
2018-12-16T00:03:33.693Z,99160.94
2018-12-16T00:06:03.352Z,99149.32
2018-12-16T00:08:30.964Z,99152.83
2018-12-16T00:11:00.139Z,99147.92
2018-12-16T00:13:27.697Z,99148.81
2018-12-16T00:15:55.461Z,99136.48
2018-12-16T00:18:23.331Z,99128.80
2018-12-16T00:20:50.903Z,99129.91
2018-12-16T00:23:18.465Z,99116.67
2018-12-16T00:25:46.188Z,99114.27
2018-12-16T00:28:13.703Z,99101.17
2018-12-16T00:30:41.259Z,99105.30
2018-12-16T00:33:08.843Z,99096.92
2018-12-16T00:35:36.411Z,99097.34
2018-12-16T00:38:03.940Z,99089.05
2018-12-16T00:40:31.484Z,99040.61
2018-12-16T00:42:59.023Z,99078.31
2018-12-16T00:45:26.604Z,99071.78
2018-12-16T00:47:54.131Z,99067.58
2018-12-16T00:50:21.704Z,99059.97
2018-12-16T00:52:49.240Z,99053.97
2018-12-16T00:55:16.783Z,99057.16
2018-12-16T00:57:44.363Z,99054.09
2018-12-16T01:00:13.842Z,99069.03
2018-12-16T01:02:42.475Z,99065.96
2018-12-16T01:05:10.567Z,99067.03
2018-12-16T01:07:38.174Z,99067.08
2018-12-16T01:10:07.807Z,99041.95
2018-12-16T01:12:35.348Z,99066.60
2018-12-16T01:15:02.889Z,99062.60
2018-12-16T01:17:30.411Z,99066.41
2018-12-16T01:19:57.996Z,99051.20
2018-12-16T01:22:25.521Z,99047.53
2018-12-16T01:24:53.076Z,99047.14
2018-12-16T01:27:20.601Z,99039.15
2018-12-16T01:29:48.160Z,99030.39
2018-12-16T01:32:15.690Z,99034.39
2018-12-16T01:34:43.258Z,99031.02
2018-12-16T01:37:10.788Z,99020.44
2018-12-16T01:39:38.380Z,99021.56
2018-12-16T01:42:05.893Z,99010.39
2018-12-16T01:44:33.421Z,99002.97
2018-12-16T01:47:00.983Z,99004.17
2018-12-16T01:49:28.490Z,98996.69
2018-12-16T01:51:56.019Z,98989.33
2018-12-16T01:54:23.642Z,98984.79
2018-12-16T01:56:51.197Z,98976.45
2018-12-16T01:59:18.738Z,98979.42
2018-12-16T02:01:51.941Z,98971.25
2018-12-16T02:04:19.461Z,98964.87
2018-12-16T02:06:47.022Z,98961.17
2018-12-16T02:09:14.551Z,98960.78
2018-12-16T02:11:42.115Z,98953.34
2018-12-16T02:14:09.637Z,98952.38
2018-12-16T02:16:37.190Z,98946.48
2018-12-16T02:19:04.705Z,98945.86
2018-12-16T02:21:32.242Z,98937.41
2018-12-16T02:23:59.780Z,98943.98
2018-12-16T02:26:27.324Z,98936.31
2018-12-16T02:28:54.850Z,98943.87
2018-12-16T02:31:22.427Z,98935.69
2018-12-16T02:33:49.942Z,98940.84
2018-12-16T02:36:17.500Z,98926.68
2018-12-16T02:38:45.047Z,98919.48
2018-12-16T02:41:12.590Z,98920.57
2018-12-16T02:43:40.187Z,98910.59
2018-12-16T02:46:07.746Z,98912.09
2018-12-16T02:48:35.264Z,98909.30
2018-12-16T02:51:02.779Z,98904.95
2018-12-16T02:53:30.328Z,98905.08
2018-12-16T02:55:57.872Z,98904.84
2018-12-16T02:58:25.426Z,98905.64
2018-12-16T03:00:52.961Z,98908.38
2018-12-16T03:03:20.524Z,98901.55
2018-12-16T03:05:48.051Z,98907.45
2018-12-16T03:08:15.617Z,98912.92
2018-12-16T03:10:43.177Z,98906.58
2018-12-16T03:13:10.918Z,98902.91
2018-12-16T03:15:38.450Z,98904.10
2018-12-16T03:18:06.021Z,98896.79
2018-12-16T03:20:33.576Z,98901.49
2018-12-16T03:23:01.133Z,98898.27
2018-12-16T03:25:28.687Z,98892.34
2018-12-16T03:27:56.239Z,98895.59
2018-12-16T03:30:23.828Z,98895.66
2018-12-16T03:32:51.398Z,98896.89
2018-12-16T03:35:19.058Z,98897.88
2018-12-16T03:37:46.706Z,98890.16
2018-12-16T03:40:14.248Z,98884.26
2018-12-16T03:42:41.824Z,98888.89
2018-12-16T03:45:09.352Z,98885.52
2018-12-16T03:47:36.915Z,98884.03
2018-12-16T03:50:04.923Z,98897.20
2018-12-16T03:52:32.502Z,98896.56
2018-12-16T03:55:00.050Z,98890.89
2018-12-16T03:57:27.610Z,98884.03
2018-12-16T03:59:55.153Z,98886.22
2018-12-16T04:02:22.707Z,98876.95
2018-12-16T04:04:50.220Z,98875.69
2018-12-16T04:07:17.775Z,98868.99
2018-12-16T04:09:45.325Z,98877.27
2018-12-16T04:12:12.905Z,98879.42
2018-12-16T04:14:41.393Z,98881.61
2018-12-16T04:17:09.240Z,98889.41
2018-12-16T04:19:36.777Z,98885.00
2018-12-16T04:22:04.355Z,98881.45
2018-12-16T04:24:31.918Z,98885.19
2018-12-16T04:26:59.443Z,98880.71
2018-12-16T04:29:27.009Z,98885.55
2018-12-16T04:31:54.600Z,98888.45
2018-12-16T04:34:22.190Z,98888.48
2018-12-16T04:36:49.722Z,98891.13
2018-12-16T04:39:17.288Z,98892.77
2018-12-16T04:41:44.868Z,98890.70
2018-12-16T04:44:12.451Z,98889.48
2018-12-16T04:46:40.029Z,98894.63
2018-12-16T04:49:07.587Z,98880.87
2018-12-16T04:51:35.124Z,98885.16
2018-12-16T04:54:02.689Z,98886.00
2018-12-16T04:56:30.228Z,98891.92
2018-12-16T04:58:57.815Z,98897.89
2018-12-16T05:01:25.363Z,98889.38
2018-12-16T05:03:52.914Z,98882.48
2018-12-16T05:06:20.437Z,98876.95
2018-12-16T05:08:48.010Z,98880.94
2018-12-16T05:11:15.556Z,98884.74
2018-12-16T05:13:43.126Z,98881.45
2018-12-16T05:16:10.666Z,98882.16
2018-12-16T05:18:38.204Z,98882.35
2018-12-16T05:21:05.750Z,98886.80
2018-12-16T05:23:33.318Z,98883.61
2018-12-16T05:26:00.856Z,98871.00
2018-12-16T05:28:28.442Z,98882.25
2018-12-16T05:30:55.974Z,98884.09
2018-12-16T05:33:23.555Z,98879.55
2018-12-16T05:35:51.084Z,98873.08
2018-12-16T05:38:18.641Z,98864.45
2018-12-16T05:40:46.164Z,98869.77
2018-12-16T05:43:13.733Z,98874.37
2018-12-16T05:45:41.260Z,98874.37
2018-12-16T05:48:08.825Z,98872.56
2018-12-16T05:50:36.356Z,98870.66
2018-12-16T05:53:03.995Z,98874.44
2018-12-16T05:55:31.527Z,98872.59
2018-12-16T05:57:59.094Z,98867.38
2018-12-16T06:00:26.656Z,98869.78
2018-12-16T06:02:54.193Z,98863.05
2018-12-16T06:05:21.750Z,98875.69
2018-12-16T06:07:49.277Z,98879.22
2018-12-16T06:10:16.845Z,98874.23
2018-12-16T06:12:44.353Z,98876.23
2018-12-16T06:15:11.915Z,98875.78
2018-12-16T06:17:39.456Z,98880.70
2018-12-16T06:20:07.114Z,98884.59
2018-12-16T06:22:34.669Z,98872.71
2018-12-16T06:25:02.216Z,98867.88
2018-12-16T06:27:29.747Z,98869.15
2018-12-16T06:29:57.788Z,98872.02
2018-12-16T06:32:25.325Z,98880.30
2018-12-16T06:34:52.875Z,98893.72
2018-12-16T06:37:20.778Z,98904.03
2018-12-16T06:39:48.345Z,98908.67
2018-12-16T06:42:15.906Z,98897.75
2018-12-16T06:44:43.470Z,98904.75
2018-12-16T06:47:11.102Z,98890.02
2018-12-16T06:49:38.653Z,98889.73
2018-12-16T06:52:06.177Z,98890.86
2018-12-16T06:54:33.782Z,98891.02
2018-12-16T06:57:01.355Z,98904.20
2018-12-16T06:59:28.913Z,98896.81
2018-12-16T07:01:56.444Z,98895.59
2018-12-16T07:04:24.009Z,98895.11
2018-12-16T07:06:53.163Z,98904.03
2018-12-16T07:09:20.849Z,98899.97
2018-12-16T07:11:48.376Z,98911.64
2018-12-16T07:14:15.937Z,98907.90
2018-12-16T07:16:43.494Z,98919.30
2018-12-16T07:19:11.047Z,98918.50
2018-12-16T07:21:38.636Z,98918.63
2018-12-16T07:24:09.214Z,98923.08
2018-12-16T07:26:35.762Z,98928.88
2018-12-16T07:29:03.324Z,98925.36
2018-12-16T07:31:30.882Z,98930.75
2018-12-16T07:33:58.587Z,98934.39
2018-12-16T07:36:26.122Z,98934.65
2018-12-16T07:38:53.664Z,98941.00
2018-12-16T07:41:21.263Z,98937.42
2018-12-16T07:43:48.795Z,98941.64
2018-12-16T07:46:16.385Z,98943.80
2018-12-16T07:48:44.097Z,98932.23
2018-12-16T07:51:11.637Z,98940.52
2018-12-16T07:53:39.158Z,98941.77
2018-12-16T07:56:06.713Z,98949.70
2018-12-16T07:58:34.219Z,98948.50
2018-12-16T08:01:01.835Z,98947.19
2018-12-16T08:03:29.407Z,98955.94
2018-12-16T08:05:56.967Z,98962.72
2018-12-16T08:08:24.478Z,98962.94
2018-12-16T08:10:52.055Z,98958.72
2018-12-16T08:13:19.628Z,98970.55
2018-12-16T08:15:47.183Z,98980.80
2018-12-16T08:18:14.875Z,98979.02
2018-12-16T08:20:42.433Z,98972.51
2018-12-16T08:23:09.950Z,98967.13
2018-12-16T08:25:37.492Z,98968.36
2018-12-16T08:28:05.526Z,98958.11
2018-12-16T08:30:33.066Z,98962.88
2018-12-16T08:33:00.612Z,98967.42
2018-12-16T08:35:28.165Z,98966.83
2018-12-16T08:37:55.690Z,98974.82
2018-12-16T08:40:23.235Z,98976.28
2018-12-16T08:42:50.781Z,98986.40
2018-12-16T08:45:18.333Z,98989.70
2018-12-16T08:47:45.855Z,98983.80
2018-12-16T08:50:13.414Z,98982.80
2018-12-16T08:52:41.628Z,98981.30
2018-12-16T08:55:09.239Z,98989.89
2018-12-16T08:57:36.759Z,98989.23
2018-12-16T09:00:05.093Z,98997.10
2018-12-16T09:02:32.630Z,98999.75
2018-12-16T09:05:00.236Z,99013.25
2018-12-16T09:07:27.739Z,99010.92
2018-12-16T09:09:55.292Z,99012.08
2018-12-16T09:12:22.815Z,99013.50
2018-12-16T09:14:50.369Z,99014.03
2018-12-16T09:17:17.978Z,99019.56
2018-12-16T09:19:45.578Z,99025.05
2018-12-16T09:22:13.119Z,99020.00
2018-12-16T09:24:40.643Z,99023.48
2018-12-16T09:27:08.183Z,99028.05
2018-12-16T09:29:35.720Z,99027.80
2018-12-16T09:32:03.252Z,99032.06
2018-12-16T09:34:30.763Z,99029.55
2018-12-16T09:36:58.352Z,99035.23
2018-12-16T09:39:25.885Z,99040.78
2018-12-16T09:41:53.428Z,99050.31
2018-12-16T09:44:20.942Z,99046.02
2018-12-16T09:46:48.504Z,99048.59
2018-12-16T09:49:16.043Z,99052.02
2018-12-16T09:51:43.681Z,99042.60
2018-12-16T09:54:11.387Z,99041.00
2018-12-16T09:56:38.954Z,99042.95
2018-12-16T09:59:06.507Z,99051.95
2018-12-16T10:01:34.120Z,99038.05
2018-12-16T10:04:01.635Z,99042.50
2018-12-16T10:06:29.206Z,99047.38
2018-12-16T10:08:56.728Z,99054.93
2018-12-16T10:11:24.288Z,99059.61
2018-12-16T10:13:51.794Z,99057.55
2018-12-16T10:16:19.352Z,99055.25
2018-12-16T10:18:46.876Z,99058.02
2018-12-16T10:21:14.420Z,99055.98
2018-12-16T10:23:41.969Z,99049.75
2018-12-16T10:26:09.518Z,99034.59
2018-12-16T10:28:37.041Z,99036.01
2018-12-16T10:31:04.588Z,99033.65
2018-12-16T10:33:32.099Z,99036.80
2018-12-16T10:35:59.667Z,99032.63
2018-12-16T10:38:27.200Z,99038.14
2018-12-16T10:40:54.746Z,99035.17
2018-12-16T10:43:22.266Z,99039.05
2018-12-16T10:45:49.829Z,99040.59
2018-12-16T10:48:17.345Z,99034.91
2018-12-16T10:50:44.898Z,99025.22
2018-12-16T10:53:12.426Z,99022.97
2018-12-16T10:55:39.948Z,99025.37
2018-12-16T10:58:07.512Z,99018.72
2018-12-16T11:00:40.756Z,99020.25
2018-12-16T11:03:08.423Z,99012.38
2018-12-16T11:05:36.225Z,99012.30
2018-12-16T11:08:03.794Z,99014.87
2018-12-16T11:10:31.315Z,99017.15
2018-12-16T11:12:59.250Z,99011.67
2018-12-16T11:15:26.768Z,99007.38
2018-12-16T11:17:54.339Z,98998.84
2018-12-16T11:20:21.850Z,98998.19
2018-12-16T11:22:49.399Z,98999.28
2018-12-16T11:25:17.014Z,99001.56
2018-12-16T11:27:44.567Z,98992.53
2018-12-16T11:30:12.177Z,98991.06
2018-12-16T11:32:40.227Z,98988.11
2018-12-16T11:35:07.870Z,98989.24
2018-12-16T11:37:35.556Z,98998.34
2018-12-16T11:40:18.370Z,99001.66
2018-12-16T11:42:45.913Z,99003.51
2018-12-16T11:45:13.638Z,98999.05
2018-12-16T11:47:41.901Z,98997.04
2018-12-16T11:50:09.490Z,98996.25
2018-12-16T11:52:37.035Z,98988.45
2018-12-16T11:55:04.649Z,98984.66
2018-12-16T11:57:32.241Z,98986.11
2018-12-16T11:59:59.759Z,98978.80
2018-12-16T12:02:32.802Z,98976.19
2018-12-16T12:04:57.011Z,98978.98
2018-12-16T12:07:24.568Z,98968.84
2018-12-16T12:09:52.095Z,98962.71
2018-12-16T12:12:19.646Z,98962.84
2018-12-16T12:14:47.178Z,98971.43
2018-12-16T12:17:14.728Z,98968.59
2018-12-16T12:19:42.245Z,98967.22
2018-12-16T12:22:10.327Z,98971.55
2018-12-16T12:24:37.848Z,98976.02
2018-12-16T12:27:05.390Z,98985.16
2018-12-16T12:29:32.924Z,98983.73
2018-12-16T12:32:00.925Z,98980.64
2018-12-16T12:34:28.511Z,98991.23
2018-12-16T12:36:56.083Z,98992.20
2018-12-16T12:39:23.599Z,98978.88
2018-12-16T12:41:51.138Z,98965.86
2018-12-16T12:44:18.647Z,98969.08
2018-12-16T12:46:46.231Z,98971.08
2018-12-16T12:49:14.428Z,98961.59
2018-12-16T12:51:41.991Z,98964.24
2018-12-16T12:54:09.535Z,98973.26
2018-12-16T12:56:38.251Z,98972.89
2018-12-16T12:59:05.860Z,98969.84
2018-12-16T13:01:33.378Z,98971.00
2018-12-16T13:04:00.941Z,98976.68
2018-12-16T13:06:28.477Z,98975.94
2018-12-16T13:08:56.063Z,98986.62
2018-12-16T13:11:23.584Z,98981.73
2018-12-16T13:13:51.150Z,98986.34
2018-12-16T13:16:18.682Z,98991.06
2018-12-16T13:18:46.264Z,98989.02
2018-12-16T13:21:13.797Z,98984.83
2018-12-16T13:23:41.351Z,98973.12
2018-12-16T13:26:09.055Z,98988.80
2018-12-16T13:28:36.598Z,98989.36
2018-12-16T13:31:04.150Z,98970.10
2018-12-16T13:33:31.710Z,98959.80
2018-12-16T13:35:59.252Z,98973.16
2018-12-16T13:38:26.823Z,98940.58
2018-12-16T13:40:54.711Z,98974.83
2018-12-16T13:43:22.820Z,98977.47
2018-12-16T13:45:50.371Z,98974.64
2018-12-16T13:48:17.959Z,98969.28
2018-12-16T13:50:45.485Z,98979.17
2018-12-16T13:53:13.898Z,98985.55
2018-12-16T13:55:41.461Z,98984.19
2018-12-16T13:58:09.052Z,98992.48
2018-12-16T14:00:36.621Z,98994.58
2018-12-16T14:03:04.224Z,98995.95
2018-12-16T14:05:32.138Z,98996.73
2018-12-16T14:07:59.728Z,98995.98
2018-12-16T14:10:28.285Z,98999.62
2018-12-16T14:12:55.838Z,98986.53
2018-12-16T14:15:23.403Z,98988.59
2018-12-16T14:17:51.062Z,98986.71
2018-12-16T14:20:18.647Z,98987.67
2018-12-16T14:22:46.214Z,98994.31
2018-12-16T14:25:13.915Z,98991.02
2018-12-16T14:27:41.541Z,98992.86
2018-12-16T14:30:10.333Z,99002.78
2018-12-16T14:32:37.906Z,99002.78
2018-12-16T14:35:07.300Z,99005.88
2018-12-16T14:37:34.932Z,99006.41
2018-12-16T14:40:03.898Z,99007.42
2018-12-16T14:42:33.116Z,99010.97
2018-12-16T14:45:02.141Z,99004.16
2018-12-16T14:47:29.879Z,99011.22
2018-12-16T14:49:57.758Z,99007.66
2018-12-16T14:52:29.097Z,99013.94
2018-12-16T14:54:58.086Z,99015.97
2018-12-16T14:57:27.738Z,99010.42
2018-12-16T14:59:55.579Z,98996.23
2018-12-16T15:02:27.122Z,98997.58
2018-12-16T15:04:54.901Z,99001.63
2018-12-16T15:07:28.840Z,98998.03
2018-12-16T15:09:57.036Z,99003.66
2018-12-16T15:12:24.957Z,99004.84
2018-12-16T15:14:53.189Z,99001.00
2018-12-16T15:17:20.933Z,99011.89
2018-12-16T15:19:48.716Z,99010.76
2018-12-16T15:22:16.303Z,99018.86
2018-12-16T15:24:44.417Z,99018.98
2018-12-16T15:27:13.409Z,99027.20
2018-12-16T15:29:41.653Z,99025.36
2018-12-16T15:32:09.371Z,99024.03
2018-12-16T15:34:37.200Z,99024.20
2018-12-16T15:37:07.210Z,99029.16
2018-12-16T15:39:35.423Z,99023.77
2018-12-16T15:42:04.906Z,99025.91
2018-12-16T15:44:33.652Z,99025.86
2018-12-16T15:47:02.512Z,99023.69
2018-12-16T15:49:30.111Z,99030.95
2018-12-16T15:51:57.864Z,99034.08
2018-12-16T15:54:25.938Z,99028.95
2018-12-16T15:56:53.521Z,99034.13
2018-12-16T15:59:21.656Z,99038.63
2018-12-16T16:01:49.948Z,99034.20
2018-12-16T16:04:17.777Z,99035.75
2018-12-16T16:06:45.340Z,99038.41
2018-12-16T16:09:12.926Z,99030.66
2018-12-16T16:11:40.832Z,99029.41
2018-12-16T16:14:08.770Z,99026.07
2018-12-16T16:16:37.415Z,99028.70
2018-12-16T16:19:04.936Z,99035.25
2018-12-16T16:21:32.499Z,99036.20
2018-12-16T16:24:00.025Z,99032.66
2018-12-16T16:26:27.608Z,99043.26
2018-12-16T16:28:55.262Z,99047.80
2018-12-16T16:31:22.927Z,99050.56
2018-12-16T16:33:52.654Z,99055.78
2018-12-16T16:36:20.196Z,99053.73
2018-12-16T16:38:47.795Z,99059.16
2018-12-16T16:41:15.341Z,99057.98
2018-12-16T16:43:43.073Z,99057.64
2018-12-16T16:46:10.590Z,99060.06
2018-12-16T16:48:38.154Z,99063.27
2018-12-16T16:51:05.831Z,99062.66
2018-12-16T16:53:36.529Z,99060.52
2018-12-16T16:56:04.227Z,99063.45
2018-12-16T16:58:31.786Z,99070.63
2018-12-16T17:00:59.340Z,99068.17
2018-12-16T17:03:26.906Z,99069.30
2018-12-16T17:05:54.435Z,99070.25
2018-12-16T17:08:22.004Z,99072.83
2018-12-16T17:10:49.571Z,99078.05
2018-12-16T17:13:17.172Z,99083.44
2018-12-16T17:15:44.726Z,99082.68
2018-12-16T17:18:12.298Z,99083.98
2018-12-16T17:20:39.862Z,99081.02
2018-12-16T17:23:07.427Z,99087.11
2018-12-16T17:25:34.967Z,99089.45
2018-12-16T17:28:02.541Z,99090.00
2018-12-16T17:30:30.145Z,99090.36
2018-12-16T17:32:57.729Z,99096.30
2018-12-16T17:35:25.251Z,99107.97
2018-12-16T17:37:52.810Z,99108.73
2018-12-16T17:40:20.327Z,99116.67
2018-12-16T17:42:47.892Z,99107.39
2018-12-16T17:45:15.425Z,99111.77
2018-12-16T17:47:42.948Z,99117.52
2018-12-16T17:50:10.589Z,99123.20
2018-12-16T17:52:38.116Z,99123.49
2018-12-16T17:55:06.064Z,99122.12
2018-12-16T17:57:33.572Z,99121.58
2018-12-16T18:00:01.123Z,99124.15
2018-12-16T18:02:28.654Z,99123.47
2018-12-16T18:04:56.211Z,99119.86
2018-12-16T18:07:23.739Z,99120.19
2018-12-16T18:09:51.285Z,99120.38
2018-12-16T18:12:18.863Z,99123.53
2018-12-16T18:14:46.453Z,99121.70
2018-12-16T18:17:13.990Z,99130.84
2018-12-16T18:19:41.564Z,99132.39
2018-12-16T18:22:13.986Z,99125.64
2018-12-16T18:24:38.677Z,99125.42
2018-12-16T18:27:06.199Z,99124.09
2018-12-16T18:29:33.755Z,99131.03
2018-12-16T18:32:01.270Z,99124.29
2018-12-16T18:34:28.825Z,99125.09
2018-12-16T18:36:56.360Z,99120.74
2018-12-16T18:39:24.002Z,99126.63
2018-12-16T18:41:51.830Z,99125.34
2018-12-16T18:44:19.386Z,99125.50
2018-12-16T18:46:46.935Z,99126.92
2018-12-16T18:49:14.496Z,99131.55
2018-12-16T18:51:42.018Z,99134.19
2018-12-16T18:54:09.583Z,99128.78
2018-12-16T18:56:37.098Z,99143.12
2018-12-16T18:59:04.712Z,99134.44
2018-12-16T19:01:32.232Z,99137.64
2018-12-16T19:03:59.794Z,99127.33
2018-12-16T19:06:27.314Z,99134.64
2018-12-16T19:08:54.857Z,99138.85
2018-12-16T19:11:22.552Z,99144.95
2018-12-16T19:13:50.085Z,99145.21
2018-12-16T19:16:17.709Z,99139.48
2018-12-16T19:18:45.452Z,99140.61
2018-12-16T19:21:13.086Z,99138.10
2018-12-16T19:23:40.606Z,99134.10
2018-12-16T19:26:08.382Z,99123.72
2018-12-16T19:28:37.059Z,99131.47
2018-12-16T19:31:04.669Z,99128.50
2018-12-16T19:33:32.229Z,99128.59
2018-12-16T19:35:59.798Z,99131.21
2018-12-16T19:38:27.377Z,99134.00
2018-12-16T19:40:54.984Z,99143.69
2018-12-16T19:43:22.530Z,99146.05
2018-12-16T19:45:56.517Z,99143.69
2018-12-16T19:48:24.209Z,99145.59
2018-12-16T19:50:51.805Z,99143.53
2018-12-16T19:53:19.353Z,99146.08
2018-12-16T19:55:46.965Z,99146.50
2018-12-16T19:58:14.485Z,99150.80
2018-12-16T20:00:43.655Z,99156.63
2018-12-16T20:03:11.267Z,99158.22
2018-12-16T20:05:41.374Z,99153.05
2018-12-16T20:08:08.934Z,99157.84
2018-12-16T20:10:36.500Z,99154.00
2018-12-16T20:13:04.023Z,99155.91
2018-12-16T20:15:31.649Z,99158.42
2018-12-16T20:17:59.207Z,99164.51
2018-12-16T20:20:26.781Z,99165.84
2018-12-16T20:22:54.331Z,99166.56
2018-12-16T20:25:22.392Z,99173.90
2018-12-16T20:27:50.108Z,99169.15
2018-12-16T20:30:17.669Z,99176.37
2018-12-16T20:32:45.200Z,99177.47
2018-12-16T20:35:13.144Z,99180.52
2018-12-16T20:37:40.956Z,99183.36
2018-12-16T20:40:08.508Z,99180.70
2018-12-16T20:42:36.005Z,99179.73
2018-12-16T20:45:04.461Z,99183.04
2018-12-16T20:47:31.989Z,99185.83
2018-12-16T20:49:59.538Z,99186.67
2018-12-16T20:52:27.048Z,99183.62
2018-12-16T20:54:54.593Z,99190.05
2018-12-16T20:57:22.119Z,99193.47
2018-12-16T20:59:50.778Z,99183.92
2018-12-16T21:02:19.285Z,99183.13
2018-12-16T21:04:46.974Z,99180.53
2018-12-16T21:07:14.694Z,99184.91
2018-12-16T21:09:42.689Z,99184.87
2018-12-16T21:15:17.003Z,99180.81
2018-12-16T21:17:50.347Z,99181.07
2018-12-16T21:20:18.952Z,99180.77
2018-12-16T21:22:47.612Z,99182.52
2018-12-16T21:25:15.179Z,99172.94
2018-12-16T21:27:42.696Z,99177.23
2018-12-16T21:30:10.616Z,99169.64
2018-12-16T21:32:38.328Z,99178.74
2018-12-16T21:35:06.366Z,99177.74
2018-12-16T21:37:34.033Z,99158.40
2018-12-16T21:40:01.567Z,99176.32
2018-12-16T21:42:29.586Z,99177.91
2018-12-16T21:44:57.137Z,99172.36
2018-12-16T21:47:24.887Z,99180.73
2018-12-16T21:49:52.719Z,99186.86
2018-12-16T21:52:21.037Z,99185.67
2018-12-16T21:54:48.749Z,99185.63
2018-12-16T21:57:16.536Z,99185.93
2018-12-16T21:59:44.833Z,99191.94
2018-12-16T22:02:12.592Z,99198.45
2018-12-16T22:04:40.284Z,99201.95
2018-12-16T22:07:08.342Z,99199.95
2018-12-16T22:09:36.228Z,99205.04
2018-12-16T22:12:03.938Z,99206.55
2018-12-16T22:14:31.767Z,99202.80
2018-12-16T22:16:59.997Z,99207.47
2018-12-16T22:19:27.812Z,99211.89
2018-12-16T22:21:55.655Z,99217.45
2018-12-16T22:24:23.181Z,99210.94
2018-12-16T22:26:50.805Z,99216.56
2018-12-16T22:29:18.335Z,99211.17
2018-12-16T22:31:45.896Z,99214.90
2018-12-16T22:34:13.412Z,99217.34
2018-12-16T22:36:40.978Z,99221.14
2018-12-16T22:39:08.490Z,99217.19
2018-12-16T22:41:36.012Z,99220.53
2018-12-16T22:44:03.649Z,99223.16
2018-12-16T22:46:31.470Z,99226.74
2018-12-16T22:48:59.005Z,99228.22
2018-12-16T22:51:26.534Z,99223.37
2018-12-16T22:53:54.089Z,99226.50
2018-12-16T22:56:21.633Z,99220.16
2018-12-16T22:58:54.324Z,99213.72
2018-12-16T23:01:19.206Z,99213.05
2018-12-16T23:03:47.024Z,99211.89
2018-12-16T23:06:15.134Z,99210.22
2018-12-16T23:08:42.835Z,99205.92
2018-12-16T23:11:10.920Z,99214.90
2018-12-16T23:13:38.755Z,99213.60
2018-12-16T23:16:07.174Z,99212.96
2018-12-16T23:18:34.879Z,99211.14
2018-12-16T23:21:02.449Z,99214.90
2018-12-16T23:23:32.147Z,99210.38
2018-12-16T23:26:00.863Z,99209.92
2018-12-16T23:28:30.734Z,99206.91
2018-12-16T23:30:59.203Z,99206.88
2018-12-16T23:33:28.889Z,99206.19
2018-12-16T23:35:57.815Z,99209.50
2018-12-16T23:38:25.883Z,99208.52
2018-12-16T23:40:55.797Z,99202.69
2018-12-16T23:43:24.424Z,99195.27
2018-12-16T23:45:52.256Z,99193.55
2018-12-16T23:48:20.004Z,99203.75
2018-12-16T23:50:47.601Z,99207.36
2018-12-16T23:53:16.213Z,99212.98
2018-12-16T23:55:44.152Z,99215.97
2018-12-16T23:58:12.124Z,99214.98
